• Join FlightAware (Why Join?)
  • Login
  • US Flag 
10:30PM EDT


 

Airport Tracker/Info


-or-


 

Live Flight TrackerFlight Track Log ✈ WAV261 ✈ 01-Dec-2013 ✈ PFYU - PAFA / FAI

Flight Track Log - Related Links

Times and Time Zones

All times are in EST time to prevent confusion due to time zone crossing. See the WAV261 flight status page for this flight to view local times or setup timezone preferences in your user account.

Time Position Orientation Groundspeed Altitude Reporting Facility
EST Latitude Longitude Course Direction KTS MPH feet Rate Location/Type
10:27PM 66.4667 -145.4167 211° Southwest 150 173 6,700  Level Anchorage Center
10:28PM 66.4333 -145.4667 211° Southwest 150 173 7,900 900 Climbing Anchorage Center
10:29PM 66.4000 -145.5167 211° Southwest 160 184 8,600 360 Climbing Anchorage Center
10:30PM 66.3500 -145.5833 208° Southwest 170 196 8,700  Climbing Anchorage Center
10:31PM 66.3167 -145.6500 219° Southwest 160 184 8,700  Level Anchorage Center
10:32PM 66.2833 -145.7167 219° Southwest 160 184 8,700  Level Anchorage Center
10:33PM 66.2500 -145.7833 219° Southwest 170 196 8,700  Level Anchorage Center
10:34PM 66.2000 -145.8500 208° Southwest 170 196 8,700  Level Anchorage Center
10:35PM 66.1667 -145.9000 211° Southwest 170 196 8,700 -60 Level Anchorage Center
10:36PM 66.1333 -145.9667 219° Southwest 180 207 8,600  Descending Anchorage Center
10:37PM 66.0833 -146.0333 208° Southwest 170 196 8,700  Climbing Anchorage Center
10:38PM 66.0500 -146.1000 219° Southwest 170 196 8,700  Level Anchorage Center
10:39PM 66.0167 -146.1667 219° Southwest 160 184 8,700 -60 Level Anchorage Center
10:40PM 65.9667 -146.2333 209° Southwest 180 207 8,600 -60 Descending Anchorage Center
10:41PM 65.9333 -146.2833 211° Southwest 170 196 8,600  Level Anchorage Center
10:42PM 65.8833 -146.3500 209° Southwest 170 196 8,600  Level Anchorage Center
10:43PM 65.8500 -146.4167 219° Southwest 170 196 8,600  Level Anchorage Center
10:44PM 65.8000 -146.4833 209° Southwest 170 196 8,600  Level Anchorage Center
10:45PM 65.7667 -146.5500 219° Southwest 170 196 8,600  Level Anchorage Center
10:46PM 65.7333 -146.6000 212° Southwest 170 196 8,600  Level Anchorage Center
10:47PM 65.6833 -146.6667 209° Southwest 170 196 8,600  Level Anchorage Center
10:48PM 65.6500 -146.7333 220° Southwest 160 184 8,600  Level Anchorage Center
10:49PM 65.6167 -146.8000 220° Southwest 170 196 8,600  Level Anchorage Center
10:50PM 65.5667 -146.8667 209° Southwest 180 207 8,600  Level Anchorage Center
10:51PM 65.5167 -146.9333 209° Southwest 180 207 8,600  Level Anchorage Center
10:52PM 65.4833 -147.0000 220° Southwest 170 196 8,600  Level Anchorage Center
10:54PM 65.4318 -147.0519 203° Southwest  Level FlightAware Approximate
11:01PM 65.1517 -147.3731 209° Southwest  Level FlightAware Approximate
11:02PM 65.1125 -147.4240 209° Southwest  Level FlightAware Approximate
11:03PM 65.0733 -147.4747 209° Southwest  Level FlightAware Approximate
11:04PM 65.0347 -147.5280 211° Southwest  Level FlightAware Approximate
11:05PM 64.9962 -147.5815 210° Southwest  Level FlightAware Approximate
11:06PM 64.9577 -147.6350 210° Southwest  Level FlightAware Approximate
11:07PM 64.9191 -147.6883 210° Southwest  Level FlightAware Approximate
11:08PM 64.8805 -147.7414 210° Southwest  Level FlightAware Approximate
11:09PM 64.8419 -147.7941 210° Southwest  Level FlightAware Approximate
11:10PM 64.8030 -147.8459 210° Southwest  Level FlightAware Approximate
11:11PM 64.8000 -147.8500 210° Southwest  Level FlightAware Approximate
11:12PM 64.8151 -147.8564 210° Southwest  Level Estimated
11:13PM 64.8151 -147.8564 210° Southwest  Level Estimated
11:14PM 64.8151 -147.8564 210° Southwest  Level Estimated
11:15PM 64.8151 -147.8564 210° Southwest  Level Estimated
11:16PM 64.8151 -147.8564 210° Southwest  Level Estimated
11:17PM 64.8151 -147.8564 210° Southwest  Level Estimated
11:18PM 64.8151 -147.8564 210° Southwest  Level Estimated
11:19PM 64.8151 -147.8564 210° Southwest  Level Estimated